createdAt,value
2022-07-31T00:01:29.980Z,100082.00
2022-07-31T00:07:32.363Z,100063.00
2022-07-31T00:13:57.120Z,100062.00
2022-07-31T00:19:57.051Z,100079.00
2022-07-31T00:25:59.257Z,100104.00
2022-07-31T00:32:01.474Z,100109.00
2022-07-31T00:44:26.419Z,100102.00
2022-07-31T00:50:28.618Z,100097.00
2022-07-31T00:56:31.086Z,100083.00
2022-07-31T01:02:33.477Z,100086.00
2022-07-31T01:08:37.028Z,100090.00
2022-07-31T01:14:48.747Z,100088.00
2022-07-31T01:20:52.333Z,100086.00
2022-07-31T01:27:01.515Z,100086.00
2022-07-31T01:33:10.698Z,100102.00
2022-07-31T01:39:13.277Z,100097.00
2022-07-31T01:45:19.397Z,100095.00
2022-07-31T01:51:23.953Z,100094.00
2022-07-31T01:57:27.623Z,100089.00
2022-07-31T02:03:43.976Z,100080.00
2022-07-31T02:09:58.550Z,100070.00
2022-07-31T02:16:07.130Z,100078.00
2022-07-31T02:22:11.298Z,100077.00
2022-07-31T02:28:17.932Z,100076.00
2022-07-31T02:47:43.095Z,100066.00
2022-07-31T02:53:48.464Z,100069.00
2022-07-31T02:59:52.572Z,100062.00
2022-07-31T03:05:56.807Z,100077.00
2022-07-31T03:12:04.644Z,100077.00
2022-07-31T03:18:11.962Z,100082.00
2022-07-31T03:24:17.885Z,100090.00
2022-07-31T03:30:25.479Z,100101.00
2022-07-31T03:36:32.324Z,100097.00
2022-07-31T03:42:34.703Z,100096.00
2022-07-31T03:48:37.092Z,100098.00
2022-07-31T03:54:39.510Z,100099.00
2022-07-31T04:00:54.071Z,100108.00
2022-07-31T04:06:57.642Z,100107.00
2022-07-31T04:13:01.144Z,100097.00
2022-07-31T04:19:03.767Z,100104.00
2022-07-31T04:25:06.581Z,100095.00
2022-07-31T04:31:37.841Z,100095.00
2022-07-31T04:37:48.052Z,100095.00
2022-07-31T04:43:51.387Z,100091.00
2022-07-31T04:49:53.496Z,100091.00
2022-07-31T04:56:15.120Z,100081.00
2022-07-31T05:02:17.649Z,100093.00
2022-07-31T05:08:19.835Z,100096.00
2022-07-31T05:14:23.423Z,100096.00
2022-07-31T05:20:25.862Z,100107.00
2022-07-31T05:26:55.992Z,100113.00
2022-07-31T05:32:58.763Z,100095.00
2022-07-31T05:39:01.367Z,100131.00
2022-07-31T05:45:35.409Z,100121.00
2022-07-31T05:51:38.943Z,100117.00
2022-07-31T05:57:41.161Z,100121.00
2022-07-31T06:03:51.965Z,100123.00
2022-07-31T06:10:24.039Z,100128.00
2022-07-31T06:16:26.407Z,100108.00
2022-07-31T06:22:28.770Z,100109.00
2022-07-31T06:28:37.848Z,100102.00
2022-07-31T06:34:50.797Z,100105.00
2022-07-31T06:40:54.499Z,100102.00
2022-07-31T06:47:13.855Z,100102.00
2022-07-31T06:53:37.356Z,100114.00
2022-07-31T06:59:40.955Z,100107.00
2022-07-31T07:05:45.471Z,100110.00
2022-07-31T07:11:54.481Z,100119.00
2022-07-31T07:17:57.428Z,100118.00
2022-07-31T07:24:11.296Z,100113.00
2022-07-31T07:30:34.317Z,100117.00
2022-07-31T07:36:38.854Z,100126.00
2022-07-31T07:42:48.154Z,100128.00
2022-07-31T07:48:51.331Z,100115.00
2022-07-31T07:55:01.851Z,100109.00
2022-07-31T08:01:33.369Z,100102.00
2022-07-31T08:07:49.399Z,100099.00
2022-07-31T08:14:30.610Z,100103.00
2022-07-31T08:21:04.902Z,100106.00
2022-07-31T08:27:37.971Z,100103.00
2022-07-31T08:33:42.673Z,100103.00
2022-07-31T08:39:45.565Z,100107.00
2022-07-31T08:45:50.112Z,100101.00
2022-07-31T08:52:02.474Z,100078.00
2022-07-31T08:58:27.513Z,100021.00
2022-07-31T09:04:30.007Z,100065.00
2022-07-31T09:10:33.229Z,100047.00
2022-07-31T09:16:46.891Z,100015.00
2022-07-31T09:23:04.427Z,100008.00
2022-07-31T09:29:14.565Z,99988.00
2022-07-31T09:35:16.853Z,100064.00
2022-07-31T09:41:56.926Z,100060.00
2022-07-31T09:48:06.609Z,99982.00
2022-07-31T09:54:23.866Z,99975.00
2022-07-31T10:00:53.400Z,100046.00
2022-07-31T10:06:57.027Z,100029.00
2022-07-31T10:13:04.059Z,99956.00
2022-07-31T10:19:11.810Z,100012.00
2022-07-31T10:25:29.419Z,100033.00
2022-07-31T10:31:33.769Z,99976.00
2022-07-31T10:37:44.370Z,100017.00
2022-07-31T10:44:23.818Z,99959.00
2022-07-31T10:51:04.192Z,99971.00
2022-07-31T10:57:29.864Z,100003.00
2022-07-31T11:04:07.871Z,99990.00
2022-07-31T11:10:32.054Z,99938.00
2022-07-31T11:16:57.750Z,99978.00
2022-07-31T11:23:31.366Z,99927.00
2022-07-31T11:29:59.451Z,99912.00
2022-07-31T11:36:12.334Z,99916.00
2022-07-31T11:42:14.889Z,99936.00
2022-07-31T11:48:21.088Z,99889.00
2022-07-31T11:54:24.967Z,99920.00
2022-07-31T12:00:30.154Z,99912.00
2022-07-31T12:06:34.942Z,99921.00
2022-07-31T12:12:40.331Z,99819.00
2022-07-31T12:18:49.920Z,99799.00
2022-07-31T12:25:00.371Z,99881.00
2022-07-31T12:31:02.944Z,99920.00
2022-07-31T12:37:14.993Z,99912.00
2022-07-31T12:43:25.022Z,99908.00
2022-07-31T12:49:27.410Z,99910.00
2022-07-31T12:55:32.326Z,99899.00
2022-07-31T13:01:35.175Z,99897.00
2022-07-31T13:07:37.849Z,99892.00
2022-07-31T13:13:40.186Z,99859.00
2022-07-31T13:19:42.625Z,99846.00
2022-07-31T13:25:44.812Z,99850.00
2022-07-31T13:31:47.316Z,99826.00
2022-07-31T13:37:49.592Z,99829.00
2022-07-31T13:43:59.644Z,99832.00
2022-07-31T13:50:02.869Z,99835.00
2022-07-31T13:56:05.810Z,99851.00
2022-07-31T14:02:08.203Z,99841.00
2022-07-31T14:08:33.443Z,99850.00
2022-07-31T14:14:33.026Z,99862.00
2022-07-31T14:20:35.476Z,99860.00
2022-07-31T14:26:38.429Z,99867.00
2022-07-31T14:32:40.512Z,99873.00
2022-07-31T14:38:43.008Z,99874.00
2022-07-31T14:44:45.490Z,99910.00
2022-07-31T14:50:47.955Z,99902.00
2022-07-31T14:57:01.202Z,99935.00
2022-07-31T15:03:04.344Z,99947.00
2022-07-31T15:09:06.797Z,99961.00
2022-07-31T15:15:10.035Z,99956.00
2022-07-31T15:21:19.141Z,99941.00
2022-07-31T15:27:25.231Z,99950.00
2022-07-31T15:33:27.448Z,99940.00
2022-07-31T15:39:29.799Z,99922.00
2022-07-31T15:45:31.912Z,99906.00
2022-07-31T15:51:34.185Z,99899.00
2022-07-31T15:57:36.566Z,99902.00
2022-07-31T16:03:53.262Z,99923.00
2022-07-31T16:10:03.399Z,99918.00
2022-07-31T16:16:17.315Z,99916.00
2022-07-31T16:22:19.690Z,99924.00
2022-07-31T16:28:22.255Z,99922.00
2022-07-31T16:34:24.955Z,99921.00
2022-07-31T16:40:31.298Z,99937.00
2022-07-31T16:46:33.913Z,99926.00
2022-07-31T16:52:36.164Z,99937.00
2022-07-31T16:58:38.419Z,99920.00
2022-07-31T17:04:40.740Z,99930.00
2022-07-31T17:10:43.448Z,99935.00
2022-07-31T17:16:48.419Z,99946.00
2022-07-31T17:22:54.496Z,99948.00
2022-07-31T18:02:52.091Z,99988.00
2022-07-31T18:08:54.827Z,99998.00
2022-07-31T18:14:56.873Z,100008.00
2022-07-31T18:20:59.291Z,100012.00
2022-07-31T18:27:01.622Z,100019.00
2022-07-31T18:33:04.526Z,100012.00
2022-07-31T18:39:07.290Z,100012.00
2022-07-31T18:45:09.986Z,100019.00
2022-07-31T18:51:12.190Z,100009.00
2022-07-31T18:57:14.636Z,100007.00
2022-07-31T19:03:18.840Z,99991.00
2022-07-31T19:09:23.256Z,99991.00
2022-07-31T19:15:25.422Z,100003.00
2022-07-31T19:21:42.179Z,100000.00
2022-07-31T19:27:50.406Z,99985.00
2022-07-31T19:33:52.901Z,99982.00
2022-07-31T19:39:55.137Z,99988.00
2022-07-31T19:46:10.865Z,99993.00
2022-07-31T19:52:14.830Z,99996.00
2022-07-31T19:58:18.295Z,99997.00
2022-07-31T20:04:20.396Z,99995.00
2022-07-31T20:10:22.669Z,99995.00
2022-07-31T20:16:25.476Z,99999.00
2022-07-31T20:22:28.136Z,99999.00
2022-07-31T20:28:30.321Z,100000.00
2022-07-31T20:34:32.906Z,100002.00
2022-07-31T20:40:35.357Z,100008.00
2022-07-31T20:46:37.508Z,100008.00
2022-07-31T20:52:40.032Z,100007.00
2022-07-31T20:58:43.005Z,99997.00
2022-07-31T21:04:45.239Z,99997.00
2022-07-31T21:10:47.503Z,100004.00
2022-07-31T21:16:49.704Z,99995.00
2022-07-31T21:22:52.255Z,99988.00
2022-07-31T21:28:54.759Z,100001.00
2022-07-31T21:34:57.755Z,99987.00
2022-07-31T21:41:00.113Z,99981.00
2022-07-31T21:47:04.203Z,99985.00
2022-07-31T21:53:08.733Z,99988.00
2022-07-31T21:59:10.801Z,99995.00
2022-07-31T22:05:31.723Z,100003.00
2022-07-31T22:11:34.209Z,100025.00
2022-07-31T22:17:36.404Z,100009.00
2022-07-31T22:23:38.796Z,100011.00
2022-07-31T22:29:42.081Z,100004.00
2022-07-31T22:35:44.453Z,99988.00
2022-07-31T22:41:46.840Z,99980.00
2022-07-31T22:47:49.224Z,99978.00
2022-07-31T22:53:51.559Z,99980.00
2022-07-31T22:59:53.840Z,99975.00
2022-07-31T23:06:28.294Z,99968.00
2022-07-31T23:12:28.362Z,99976.00
2022-07-31T23:18:31.878Z,99976.00
2022-07-31T23:24:34.335Z,99964.00
2022-07-31T23:30:36.682Z,99957.00
2022-07-31T23:36:39.113Z,99953.00
2022-07-31T23:42:41.507Z,99953.00
2022-07-31T23:48:43.610Z,99944.00
2022-07-31T23:54:45.966Z,99940.00
